Time;durP1;ratioP1;P1;durP2;ratioP2;P2;SDS_P1;SDS_P2;PMS_P1;PMS_P2;Temp;Humidity;BMP_temperature;BMP_pressure;BME280_temperature;BME280_humidity;BME280_pressure;Samples;Min_cycle;Max_cycle;Signal;HPM_P1;HPM_P2
2021/05/05 00:01:56;;;;;;;1.05;0.70;;;22.30;41.00;;;;;;5077980;28;20039;-63
2021/05/05 00:04:22;;;;;;;2.25;0.80;;;22.30;41.60;;;;;;5079408;28;20123;-61
2021/05/05 00:06:48;;;;;;;0.73;0.63;;;22.30;41.00;;;;;;5085182;28;20538;-61
2021/05/05 00:09:14;;;;;;;2.45;0.75;;;22.30;41.00;;;;;;5086851;28;20024;-62
2021/05/05 00:11:41;;;;;;;2.25;0.80;;;22.30;41.00;;;;;;5087719;28;20713;-62
2021/05/05 00:14:08;;;;;;;1.33;0.70;;;22.30;41.00;;;;;;5088649;28;20047;-64
2021/05/05 00:16:34;;;;;;;1.98;0.77;;;22.30;41.00;;;;;;5089333;28;20031;-62
2021/05/05 00:18:59;;;;;;;1.45;0.70;;;22.30;41.00;;;;;;5083602;28;20020;-62
2021/05/05 00:21:25;;;;;;;1.35;0.70;;;22.30;41.00;;;;;;5083283;28;20081;-62
2021/05/05 00:23:51;;;;;;;1.00;0.68;;;22.30;41.00;;;;;;5084275;28;20459;-64
2021/05/05 00:26:16;;;;;;;1.50;0.80;;;22.30;41.00;;;;;;5086202;28;20059;-63
2021/05/05 00:28:42;;;;;;;2.28;0.70;;;22.30;41.00;;;;;;5080389;28;20040;-62
2021/05/05 00:31:08;;;;;;;1.13;0.70;;;22.20;41.00;;;;;;5070370;28;20124;-63
2021/05/05 00:33:33;;;;;;;0.98;0.70;;;22.30;41.10;;;;;;5089616;28;20032;-64
2021/05/05 00:35:59;;;;;;;1.75;0.70;;;22.20;41.00;;;;;;5086749;28;20020;-62
2021/05/05 00:38:25;;;;;;;1.17;0.80;;;22.20;41.00;;;;;;5089038;28;20032;-62
2021/05/05 00:40:50;;;;;;;1.42;0.73;;;22.20;41.00;;;;;;5071263;28;20020;-64
2021/05/05 00:43:16;;;;;;;0.80;0.60;;;22.20;41.00;;;;;;5085645;28;20043;-64
2021/05/05 00:45:41;;;;;;;0.90;0.70;;;22.20;41.00;;;;;;5088764;28;20069;-63
2021/05/05 00:48:07;;;;;;;0.90;0.70;;;22.20;41.00;;;;;;5089726;28;20051;-61
2021/05/05 00:50:33;;;;;;;1.10;0.80;;;22.20;41.60;;;;;;5070583;28;20035;-64
2021/05/05 00:52:59;;;;;;;1.13;0.70;;;22.20;41.00;;;;;;5068624;28;20028;-62
2021/05/05 00:55:25;;;;;;;0.73;0.70;;;22.20;41.00;;;;;;5086498;28;20047;-64
2021/05/05 00:57:51;;;;;;;0.80;0.60;;;22.20;41.00;;;;;;5085494;28;20020;-64
2021/05/05 01:00:20;;;;;;;0.90;0.70;;;22.20;41.00;;;;;;5083899;28;20028;-64
2021/05/05 01:02:46;;;;;;;0.63;0.60;;;22.10;41.00;;;;;;5084667;28;20376;-63
2021/05/05 01:05:13;;;;;;;1.25;0.70;;;22.10;41.00;;;;;;5085495;28;20054;-62
2021/05/05 01:07:39;;;;;;;1.40;0.70;;;22.10;41.00;;;;;;5079305;28;20483;-63
2021/05/05 01:10:11;;;;;;;2.25;0.70;;;22.10;41.00;;;;;;5080633;28;20055;-63
2021/05/05 01:12:37;;;;;;;1.10;0.60;;;22.10;41.00;;;;;;5082460;28;20034;-64
2021/05/05 01:15:05;;;;;;;1.00;0.70;;;22.10;41.00;;;;;;5088890;28;20028;-63
2021/05/05 01:17:32;;;;;;;0.70;0.60;;;22.10;41.00;;;;;;5082516;28;20024;-62
2021/05/05 01:19:58;;;;;;;0.80;0.60;;;22.10;41.60;;;;;;5084270;28;20030;-63
2021/05/05 01:22:24;;;;;;;1.60;0.70;;;22.10;41.10;;;;;;5086476;28;20032;-62
2021/05/05 01:24:49;;;;;;;1.20;0.80;;;22.10;41.50;;;;;;5080678;28;20487;-64
2021/05/05 01:27:16;;;;;;;0.98;0.60;;;22.10;41.10;;;;;;5084805;28;20051;-63
2021/05/05 01:29:43;;;;;;;1.35;0.82;;;22.10;41.00;;;;;;5085841;28;20019;-62
2021/05/05 01:32:09;;;;;;;1.17;0.70;;;22.10;41.10;;;;;;5080384;28;20128;-63
2021/05/05 01:34:35;;;;;;;1.88;0.63;;;22.10;41.10;;;;;;5088259;28;20443;-64
2021/05/05 01:37:01;;;;;;;1.00;0.55;;;22.10;41.10;;;;;;5087165;28;20357;-63
2021/05/05 01:39:27;;;;;;;0.60;0.60;;;22.00;41.00;;;;;;5086613;28;20089;-62
2021/05/05 01:41:53;;;;;;;1.20;0.70;;;22.00;41.00;;;;;;5088431;28;20409;-63
2021/05/05 01:44:31;;;;;;;0.82;0.60;;;22.00;41.00;;;;;;5087180;28;20036;-63
2021/05/05 01:46:57;;;;;;;1.75;0.80;;;22.00;41.00;;;;;;5086430;28;20375;-63
2021/05/05 01:49:25;;;;;;;0.60;0.60;;;22.00;41.00;;;;;;5088065;28;20032;-63
2021/05/05 01:51:53;;;;;;;0.82;0.60;;;22.00;41.00;;;;;;5085785;28;20028;-62
2021/05/05 01:54:20;;;;;;;1.67;0.70;;;22.00;41.10;;;;;;5052653;28;20038;-62
2021/05/05 01:56:45;;;;;;;0.98;0.70;;;22.00;41.00;;;;;;5067977;28;20055;-63
2021/05/05 01:59:11;;;;;;;0.60;0.60;;;22.00;41.10;;;;;;5082045;28;20081;-63
2021/05/05 02:01:37;;;;;;;1.15;0.63;;;22.00;41.10;;;;;;5084666;28;20046;-63
2021/05/05 02:04:03;;;;;;;1.00;0.70;;;21.90;41.10;;;;;;5086948;28;20103;-63
2021/05/05 02:06:30;;;;;;;1.05;0.60;;;22.00;41.10;;;;;;5085914;28;20060;-65
2021/05/05 02:08:57;;;;;;;0.75;0.50;;;21.90;41.10;;;;;;5087527;28;20427;-61
2021/05/05 02:11:23;;;;;;;1.13;0.70;;;22.00;41.10;;;;;;5087098;28;20020;-64
2021/05/05 02:13:49;;;;;;;1.30;0.70;;;22.00;41.10;;;;;;5066823;28;20348;-64
2021/05/05 02:16:15;;;;;;;0.95;0.60;;;21.90;41.60;;;;;;5082953;28;20570;-63
2021/05/05 02:18:41;;;;;;;0.98;0.63;;;21.90;41.10;;;;;;5085823;28;20031;-62
2021/05/05 02:21:07;;;;;;;0.98;0.70;;;21.90;41.10;;;;;;5080806;28;20028;-64
2021/05/05 02:23:33;;;;;;;1.23;0.70;;;21.90;41.10;;;;;;5086363;28;20055;-63
2021/05/05 02:26:00;;;;;;;0.77;0.60;;;21.90;41.10;;;;;;5079700;28;20032;-64
2021/05/05 02:28:26;;;;;;;0.82;0.60;;;21.90;41.10;;;;;;5079932;28;20032;-63
2021/05/05 02:30:51;;;;;;;1.08;0.60;;;21.90;41.10;;;;;;5085185;28;20513;-61
2021/05/05 02:33:17;;;;;;;0.60;0.60;;;21.90;41.10;;;;;;5070771;28;20033;-64
2021/05/05 02:35:43;;;;;;;0.52;0.50;;;21.90;41.10;;;;;;5083391;28;20043;-62
2021/05/05 02:38:08;;;;;;;0.65;0.60;;;21.90;41.10;;;;;;5084948;28;20108;-62
2021/05/05 02:40:36;;;;;;;1.10;0.63;;;21.90;41.10;;;;;;5086302;28;20120;-62
2021/05/05 02:43:02;;;;;;;1.00;0.80;;;21.90;41.10;;;;;;5067828;28;20024;-63
2021/05/05 02:45:28;;;;;;;1.00;0.70;;;21.90;41.10;;;;;;5086336;28;20122;-61
2021/05/05 02:47:54;;;;;;;0.60;0.60;;;21.80;41.10;;;;;;5084505;28;20434;-62
2021/05/05 02:50:19;;;;;;;0.60;0.60;;;21.80;41.10;;;;;;5085894;28;20028;-64
2021/05/05 02:52:45;;;;;;;0.85;0.52;;;21.80;41.10;;;;;;5086606;28;20470;-62
2021/05/05 02:55:11;;;;;;;0.82;0.60;;;21.80;41.10;;;;;;5080026;28;20443;-65
2021/05/05 02:57:37;;;;;;;0.65;0.60;;;21.80;41.10;;;;;;5078808;28;20542;-64
2021/05/05 03:00:10;;;;;;;1.05;0.70;;;21.80;41.10;;;;;;5079821;28;20047;-61
2021/05/05 03:02:36;;;;;;;0.90;0.50;;;21.80;41.10;;;;;;5064044;28;20039;-61
2021/05/05 03:05:04;;;;;;;0.47;0.47;;;21.80;41.10;;;;;;5078237;28;20027;-61
2021/05/05 03:07:29;;;;;;;0.50;0.50;;;21.80;41.10;;;;;;5081953;28;20317;-63
2021/05/05 03:09:55;;;;;;;0.50;0.50;;;21.80;41.20;;;;;;5078432;28;20088;-62
2021/05/05 03:12:21;;;;;;;0.82;0.57;;;21.80;41.60;;;;;;5066489;28;20135;-62
2021/05/05 03:14:46;;;;;;;0.60;0.60;;;21.80;41.10;;;;;;5065866;28;20566;-63
2021/05/05 03:17:12;;;;;;;1.02;0.60;;;21.70;41.10;;;;;;5085640;28;20130;-62
2021/05/05 03:19:37;;;;;;;1.00;0.60;;;21.70;41.10;;;;;;5086141;28;20052;-62
2021/05/05 03:22:03;;;;;;;0.60;0.55;;;21.70;41.10;;;;;;5084458;28;20100;-65
2021/05/05 03:24:29;;;;;;;0.50;0.50;;;21.70;41.10;;;;;;5084911;28;20056;-62
2021/05/05 03:26:55;;;;;;;1.20;0.70;;;21.70;41.10;;;;;;5084098;28;20113;-64
2021/05/05 03:29:20;;;;;;;0.50;0.50;;;21.70;41.10;;;;;;5084157;28;20067;-62
2021/05/05 03:31:46;;;;;;;1.20;0.60;;;21.70;41.10;;;;;;5066436;28;20036;-63
2021/05/05 03:34:12;;;;;;;1.10;0.60;;;21.70;41.10;;;;;;5064775;28;20459;-62
2021/05/05 03:36:38;;;;;;;0.80;0.60;;;21.70;41.20;;;;;;5085199;28;20031;-63
2021/05/05 03:39:05;;;;;;;0.68;0.52;;;21.70;41.10;;;;;;5071723;28;20078;-61
2021/05/05 03:41:31;;;;;;;0.50;0.50;;;21.70;41.10;;;;;;5085010;28;20024;-61
2021/05/05 03:43:57;;;;;;;0.50;0.50;;;21.70;41.10;;;;;;5062587;28;20028;-62
2021/05/05 03:46:23;;;;;;;0.73;0.60;;;21.70;41.10;;;;;;5079701;28;20035;-62
2021/05/05 03:48:49;;;;;;;0.60;0.57;;;21.70;41.10;;;;;;5085046;28;20023;-61
2021/05/05 03:51:15;;;;;;;0.98;0.60;;;21.70;41.10;;;;;;5080775;28;20315;-63
2021/05/05 03:53:41;;;;;;;0.77;0.60;;;21.70;41.10;;;;;;5061697;28;20032;-61
2021/05/05 03:56:06;;;;;;;1.05;0.50;;;21.70;41.10;;;;;;5083664;28;20057;-61
2021/05/05 03:58:33;;;;;;;0.60;0.50;;;21.60;41.10;;;;;;5083322;28;20364;-63
2021/05/05 04:00:59;;;;;;;0.80;0.65;;;21.60;41.10;;;;;;5077882;28;20040;-64
2021/05/05 04:03:24;;;;;;;0.60;0.60;;;21.60;41.60;;;;;;5080299;28;20032;-62
2021/05/05 04:05:50;;;;;;;0.93;0.55;;;21.60;41.10;;;;;;5077251;28;20406;-63
2021/05/05 04:08:16;;;;;;;0.50;0.50;;;21.60;41.10;;;;;;5079817;28;20082;-62
2021/05/05 04:10:41;;;;;;;0.88;0.60;;;21.60;41.10;;;;;;5077816;28;20091;-62
2021/05/05 04:13:07;;;;;;;0.70;0.60;;;21.60;41.10;;;;;;5077237;28;20036;-63
2021/05/05 04:15:33;;;;;;;0.90;0.55;;;21.60;41.20;;;;;;5086255;28;20055;-63
2021/05/05 04:17:58;;;;;;;0.60;0.50;;;21.60;41.10;;;;;;5086320;28;20028;-62
2021/05/05 04:20:24;;;;;;;0.52;0.47;;;21.60;41.10;;;;;;5092403;28;20035;-61
2021/05/05 04:22:50;;;;;;;0.80;0.57;;;21.60;41.20;;;;;;5081953;28;20035;-64
2021/05/05 04:25:17;;;;;;;0.50;0.50;;;21.60;41.10;;;;;;5065791;28;20032;-63
2021/05/05 04:27:43;;;;;;;0.93;0.60;;;21.60;41.20;;;;;;5085829;28;20094;-62
2021/05/05 04:30:11;;;;;;;0.88;0.60;;;21.60;41.20;;;;;;5085037;28;20040;-63
2021/05/05 04:32:36;;;;;;;1.13;0.60;;;21.50;41.10;;;;;;5070937;28;20032;-62
2021/05/05 04:35:03;;;;;;;0.85;0.63;;;21.60;41.20;;;;;;5065740;28;20087;-63
2021/05/05 04:37:28;;;;;;;0.82;0.60;;;21.50;41.10;;;;;;5048836;28;20471;-63
2021/05/05 04:39:54;;;;;;;0.52;0.50;;;21.50;41.20;;;;;;5085394;28;20074;-63
2021/05/05 04:42:20;;;;;;;0.80;0.60;;;21.60;41.30;;;;;;5081402;28;20017;-63
2021/05/05 04:44:45;;;;;;;0.60;0.60;;;21.60;41.30;;;;;;5077852;28;20494;-61
2021/05/05 04:47:11;;;;;;;1.63;0.70;;;21.50;41.30;;;;;;5083689;28;20089;-61
2021/05/05 04:49:36;;;;;;;0.88;0.60;;;21.50;41.30;;;;;;5084768;28;20440;-63
2021/05/05 04:52:02;;;;;;;0.68;0.60;;;21.50;41.30;;;;;;5085653;28;20032;-62
2021/05/05 04:54:28;;;;;;;0.75;0.50;;;21.50;41.30;;;;;;5086683;28;20161;-61
2021/05/05 04:56:54;;;;;;;0.85;0.52;;;21.60;41.40;;;;;;5089327;28;20321;-64
2021/05/05 04:59:20;;;;;;;1.10;0.60;;;21.50;41.40;;;;;;5089403;28;20059;-61
2021/05/05 05:01:45;;;;;;;0.60;0.55;;;21.50;41.40;;;;;;5083636;28;20039;-62
2021/05/05 05:04:11;;;;;;;1.15;0.70;;;21.50;41.40;;;;;;5088638;28;20020;-61
2021/05/05 05:06:36;;;;;;;0.80;0.60;;;21.50;41.50;;;;;;5068309;28;20036;-59
2021/05/05 05:09:03;;;;;;;0.93;0.60;;;21.50;41.50;;;;;;5058756;28;20024;-59
2021/05/05 05:11:29;;;;;;;1.17;0.80;;;21.50;41.50;;;;;;5089592;28;20090;-60
2021/05/05 05:13:54;;;;;;;1.38;0.70;;;21.50;41.60;;;;;;5089371;28;20035;-61
2021/05/05 05:16:20;;;;;;;1.20;0.80;;;21.40;41.50;;;;;;5098323;28;20031;-60
2021/05/05 05:18:45;;;;;;;0.60;0.60;;;21.50;41.70;;;;;;5087609;28;20028;-63
2021/05/05 05:21:11;;;;;;;1.27;0.75;;;21.50;41.60;;;;;;5080935;28;20111;-59
2021/05/05 05:23:37;;;;;;;0.90;0.63;;;21.50;41.60;;;;;;5085982;28;20059;-61
2021/05/05 05:26:02;;;;;;;1.80;0.77;;;21.40;41.60;;;;;;5088174;28;20028;-60
2021/05/05 05:28:29;;;;;;;1.20;0.70;;;21.50;41.70;;;;;;5088672;28;20028;-61
2021/05/05 05:30:54;;;;;;;1.45;0.80;;;21.50;41.70;;;;;;5086594;28;20123;-63
2021/05/05 05:33:20;;;;;;;1.27;0.80;;;21.40;41.60;;;;;;5062334;28;20123;-63
2021/05/05 05:35:46;;;;;;;1.42;0.80;;;21.50;42.00;;;;;;5079683;28;20038;-62
2021/05/05 05:38:12;;;;;;;0.98;0.70;;;21.40;42.20;;;;;;5074591;28;20049;-60
2021/05/05 05:40:39;;;;;;;1.50;0.77;;;21.50;41.90;;;;;;5071275;28;20214;-62
2021/05/05 05:43:04;;;;;;;1.55;0.82;;;21.70;41.70;;;;;;5088688;28;20378;-59
2021/05/05 05:45:30;;;;;;;2.20;0.90;;;21.70;41.60;;;;;;5086253;28;20028;-61
2021/05/05 05:47:56;;;;;;;1.60;0.80;;;21.80;41.40;;;;;;5087764;28;20024;-59
2021/05/05 05:50:22;;;;;;;2.10;1.10;;;21.90;41.50;;;;;;5084946;28;20032;-61
2021/05/05 05:52:48;;;;;;;1.85;0.90;;;22.00;41.20;;;;;;5086728;28;20119;-62
2021/05/05 05:55:15;;;;;;;1.92;0.77;;;22.10;41.20;;;;;;5087085;28;20051;-62
2021/05/05 05:57:43;;;;;;;1.83;0.80;;;22.20;41.00;;;;;;5075861;28;20104;-59
2021/05/05 06:00:12;;;;;;;1.98;0.90;;;22.20;40.70;;;;;;5081308;28;20028;-61
2021/05/05 06:02:37;;;;;;;1.83;0.90;;;22.20;40.60;;;;;;5082787;28;20427;-59
2021/05/05 06:05:04;;;;;;;1.80;0.90;;;22.30;40.50;;;;;;5084501;28;20032;-58
2021/05/05 06:07:29;;;;;;;1.42;0.80;;;22.30;40.50;;;;;;5085102;28;20051;-61
2021/05/05 06:09:55;;;;;;;1.33;0.80;;;22.30;40.40;;;;;;5086140;28;20067;-60
2021/05/05 06:12:21;;;;;;;2.28;1.02;;;22.40;40.40;;;;;;5083683;28;20427;-60
2021/05/05 06:14:46;;;;;;;1.50;0.90;;;22.50;40.40;;;;;;5081489;28;20035;-60
2021/05/05 06:17:12;;;;;;;1.77;0.88;;;22.50;40.30;;;;;;5084013;28;20024;-62
2021/05/05 06:19:37;;;;;;;2.28;1.05;;;22.60;40.30;;;;;;5087622;28;20028;-61
2021/05/05 06:22:04;;;;;;;1.27;0.80;;;22.60;40.10;;;;;;5084175;28;20097;-60
2021/05/05 06:24:30;;;;;;;2.47;1.00;;;22.70;40.00;;;;;;5083699;28;20070;-61
2021/05/05 06:26:55;;;;;;;1.83;0.70;;;22.70;39.80;;;;;;5088601;28;20038;-61
2021/05/05 06:29:21;;;;;;;1.60;0.80;;;22.80;39.90;;;;;;5088504;28;20672;-61
2021/05/05 06:31:47;;;;;;;2.80;0.98;;;22.80;39.90;;;;;;5076482;28;20052;-60
2021/05/05 06:34:13;;;;;;;2.03;0.80;;;22.90;39.80;;;;;;5092827;28;20092;-60
2021/05/05 06:36:38;;;;;;;0.73;0.60;;;23.00;39.80;;;;;;5087298;28;20103;-62
2021/05/05 06:39:08;;;;;;;1.80;0.80;;;23.00;39.60;;;;;;5084189;28;20028;-62
2021/05/05 06:41:37;;;;;;;1.95;0.80;;;23.10;39.40;;;;;;5081204;28;20025;-59
2021/05/05 06:44:04;;;;;;;1.92;0.70;;;23.10;39.40;;;;;;5084523;28;20036;-59
2021/05/05 06:46:30;;;;;;;1.42;0.80;;;23.10;39.40;;;;;;5087611;28;20395;-59
2021/05/05 06:48:57;;;;;;;1.30;0.80;;;23.10;39.50;;;;;;5075541;28;20456;-61
2021/05/05 06:51:23;;;;;;;1.00;0.70;;;23.00;39.50;;;;;;5067783;28;20028;-60
2021/05/05 06:53:48;;;;;;;2.05;0.80;;;23.00;39.50;;;;;;5087208;28;20032;-61
2021/05/05 06:56:14;;;;;;;1.17;0.70;;;23.00;39.50;;;;;;5086562;28;20085;-59
2021/05/05 06:58:39;;;;;;;1.27;0.80;;;23.00;39.50;;;;;;5087070;28;20042;-62
2021/05/05 07:01:05;;;;;;;1.58;0.85;;;23.00;39.50;;;;;;5079270;28;20037;-60
2021/05/05 07:03:31;;;;;;;0.65;0.60;;;23.10;39.50;;;;;;5084646;28;20153;-59
2021/05/05 07:05:58;;;;;;;1.20;0.80;;;23.10;39.50;;;;;;5085053;28;20038;-56
2021/05/05 07:08:25;;;;;;;0.95;0.77;;;23.10;39.50;;;;;;5086588;28;20105;-58
2021/05/05 07:10:51;;;;;;;1.30;0.80;;;23.10;39.50;;;;;;5087188;28;20119;-60
2021/05/05 07:13:16;;;;;;;1.38;0.77;;;23.10;39.40;;;;;;5085959;28;20152;-60
2021/05/05 07:15:42;;;;;;;1.58;0.80;;;23.10;39.40;;;;;;5087262;28;20430;-61
2021/05/05 07:18:08;;;;;;;1.58;0.70;;;23.10;39.40;;;;;;5087086;28;20058;-58
2021/05/05 07:20:34;;;;;;;1.48;0.80;;;23.10;39.40;;;;;;5088241;28;20109;-61
2021/05/05 07:23:00;;;;;;;0.95;0.70;;;23.10;39.30;;;;;;5084601;28;20035;-59
2021/05/05 07:25:26;;;;;;;0.77;0.60;;;23.10;39.30;;;;;;5084704;28;20036;-58
2021/05/05 07:27:52;;;;;;;1.15;0.70;;;23.10;39.30;;;;;;5084506;28;20198;-59
2021/05/05 07:30:18;;;;;;;2.33;1.00;;;23.10;39.30;;;;;;5085543;28;20028;-59
2021/05/05 07:32:44;;;;;;;1.67;0.80;;;23.10;39.30;;;;;;5079096;28;20039;-60
2021/05/05 07:35:10;;;;;;;1.13;0.70;;;23.10;39.30;;;;;;5079173;28;20043;-60
2021/05/05 07:43:38;;;;;;;1.42;0.70;;;23.10;39.30;;;;;;5084855;28;20097;-59
2021/05/05 07:46:00;;;;;;;1.33;0.73;;;23.10;39.30;;;;;;5085291;28;20109;-59
2021/05/05 07:48:36;;;;;;;1.00;0.80;;;23.10;39.90;;;;;;5084604;28;20093;-59
2021/05/05 07:51:02;;;;;;;0.63;0.60;;;23.20;39.40;;;;;;5084879;28;20051;-60
2021/05/05 07:53:28;;;;;;;0.80;0.63;;;23.20;39.30;;;;;;5084961;28;20685;-60
2021/05/05 07:55:55;;;;;;;2.08;0.77;;;23.20;39.30;;;;;;5084409;28;20374;-56
2021/05/05 07:58:22;;;;;;;1.60;0.75;;;23.20;39.30;;;;;;5084703;28;20398;-59
2021/05/05 08:00:47;;;;;;;0.75;0.60;;;23.20;39.30;;;;;;5081460;28;20159;-56
2021/05/05 08:03:13;;;;;;;1.33;0.80;;;23.20;39.20;;;;;;5080514;28;20028;-57
2021/05/05 08:05:39;;;;;;;1.35;0.80;;;23.20;39.30;;;;;;5085273;28;20043;-59
2021/05/05 08:08:05;;;;;;;1.42;0.70;;;23.20;39.20;;;;;;5084310;28;20032;-60
2021/05/05 08:10:30;;;;;;;1.23;0.70;;;23.20;39.20;;;;;;5086325;28;20130;-56
2021/05/05 08:12:56;;;;;;;1.08;0.65;;;23.20;39.30;;;;;;5086109;28;20028;-58
2021/05/05 08:15:22;;;;;;;1.02;0.70;;;23.20;39.20;;;;;;5083245;28;20036;-58
2021/05/05 08:17:48;;;;;;;0.82;0.70;;;23.20;39.30;;;;;;5085839;28;20095;-59
2021/05/05 08:20:14;;;;;;;1.05;0.70;;;23.20;39.30;;;;;;5082174;28;20479;-59
2021/05/05 08:22:40;;;;;;;1.27;0.60;;;23.30;39.30;;;;;;5083380;28;20036;-54
2021/05/05 08:25:07;;;;;;;1.02;0.60;;;23.30;39.30;;;;;;5084118;28;20035;-58
2021/05/05 08:27:32;;;;;;;1.25;0.70;;;23.30;39.30;;;;;;5075756;28;20032;-59
2021/05/05 08:29:58;;;;;;;1.48;0.70;;;23.30;39.30;;;;;;5078036;28;20034;-61
2021/05/05 08:32:24;;;;;;;1.00;0.70;;;23.30;39.30;;;;;;5088970;28;20074;-56
2021/05/05 08:34:49;;;;;;;1.33;0.60;;;23.20;39.20;;;;;;5083202;28;20051;-58
2021/05/05 08:37:15;;;;;;;0.93;0.63;;;23.30;39.30;;;;;;5081587;28;20507;-59
2021/05/05 08:39:40;;;;;;;0.68;0.60;;;23.20;39.20;;;;;;5088307;28;20082;-56
2021/05/05 08:42:06;;;;;;;0.90;0.60;;;23.30;39.30;;;;;;5086328;28;20548;-62
2021/05/05 08:44:32;;;;;;;0.95;0.60;;;23.20;39.20;;;;;;5087945;28;20032;-55
2021/05/05 08:46:58;;;;;;;1.27;0.73;;;23.30;39.30;;;;;;5089942;28;20036;-57
2021/05/05 08:49:24;;;;;;;1.00;0.75;;;23.20;39.20;;;;;;5089187;28;20047;-56
2021/05/05 08:51:50;;;;;;;1.27;0.80;;;23.30;39.30;;;;;;5089760;28;20028;-56
2021/05/05 08:54:16;;;;;;;1.15;0.80;;;23.30;39.30;;;;;;5088468;28;20107;-58
2021/05/05 08:56:42;;;;;;;0.95;0.60;;;23.20;39.20;;;;;;5093155;28;20514;-53
2021/05/05 08:59:11;;;;;;;1.02;0.70;;;23.30;39.20;;;;;;5091548;28;20050;-60
2021/05/05 09:01:39;;;;;;;1.20;0.68;;;23.30;39.20;;;;;;5095733;28;20147;-58
2021/05/05 09:04:05;;;;;;;1.73;0.90;;;23.30;39.20;;;;;;5090192;28;20028;-61
2021/05/05 09:06:59;;;;;;;1.13;0.65;;;23.30;39.20;;;;;;5093415;28;20024;-54
2021/05/05 09:09:37;;;;;;;0.93;0.63;;;23.30;39.20;;;;;;5085810;28;20501;-55
2021/05/05 09:12:18;;;;;;;1.52;0.65;;;23.30;39.30;;;;;;5089297;28;20081;-58
2021/05/05 09:15:04;;;;;;;1.23;0.60;;;23.30;39.40;;;;;;5078307;28;20051;-58
2021/05/05 09:17:34;;;;;;;1.10;0.65;;;23.40;39.20;;;;;;5088158;28;20024;-57
2021/05/05 09:20:06;;;;;;;1.35;0.77;;;23.30;39.30;;;;;;5089603;28;20051;-55
2021/05/05 09:22:48;;;;;;;1.65;0.70;;;23.30;39.10;;;;;;5086604;28;20028;-57
2021/05/05 09:25:22;;;;;;;0.68;0.65;;;23.30;39.10;;;;;;5083567;28;20101;-59
2021/05/05 09:28:08;;;;;;;1.75;0.70;;;23.30;39.10;;;;;;5078881;28;20038;-61
2021/05/05 09:30:35;;;;;;;1.13;0.70;;;23.30;39.10;;;;;;5086667;28;20536;-58
2021/05/05 09:33:00;;;;;;;1.30;0.70;;;23.30;39.10;;;;;;5082561;28;20032;-56
2021/05/05 09:35:31;;;;;;;1.27;0.70;;;23.40;39.10;;;;;;5088033;28;20048;-52
2021/05/05 09:38:03;;;;;;;0.70;0.60;;;23.40;39.10;;;;;;5087148;28;20028;-53
2021/05/05 09:40:29;;;;;;;1.02;0.68;;;23.40;39.10;;;;;;5085759;28;20020;-57
2021/05/05 09:42:55;;;;;;;0.57;0.50;;;23.40;39.10;;;;;;5094456;28;20042;-53
2021/05/05 09:45:30;;;;;;;1.02;0.60;;;23.40;39.10;;;;;;5086601;28;20038;-60
2021/05/05 09:48:00;;;;;;;0.85;0.60;;;23.40;39.20;;;;;;5084181;28;20044;-58
2021/05/05 09:50:42;;;;;;;1.35;0.80;;;23.40;39.10;;;;;;5083717;28;20526;-57
2021/05/05 09:53:16;;;;;;;0.88;0.70;;;23.40;39.10;;;;;;5086450;28;20050;-59
2021/05/05 09:55:44;;;;;;;0.82;0.63;;;23.40;39.10;;;;;;5086615;28;20023;-59
2021/05/05 09:58:44;;;;;;;0.50;0.50;;;23.40;39.10;;;;;;5087120;28;20036;-58
2021/05/05 10:01:10;;;;;;;;;;;23.40;39.20;;;;;;5040228;28;20127;-57
2021/05/05 10:03:58;;;;;;;2.42;0.70;;;23.40;38.80;;;;;;5087085;28;20219;-55
2021/05/05 10:06:32;;;;;;;1.90;0.85;;;23.40;35.40;;;;;;5088032;28;20032;-57
2021/05/05 10:09:01;;;;;;;3.83;1.67;;;23.30;34.30;;;;;;5085042;28;20055;-58
2021/05/05 10:11:35;;;;;;;5.15;3.50;;;23.10;32.70;;;;;;5085971;28;20428;-55
2021/05/05 10:14:04;;;;;;;4.10;2.85;;;23.10;33.50;;;;;;5084776;28;20024;-61
2021/05/05 10:16:41;;;;;;;;;;;23.10;35.20;;;;;;5087706;28;20046;-56
2021/05/05 10:19:26;;;;;;;2.58;1.45;;;23.20;36.30;;;;;;5086945;28;19916;-55
2021/05/05 10:22:01;;;;;;;1.42;1.00;;;23.20;37.40;;;;;;5084577;28;20094;-56
2021/05/05 10:24:31;;;;;;;1.73;1.00;;;23.30;37.70;;;;;;5073258;28;20028;-60
2021/05/05 10:26:57;;;;;;;1.73;1.00;;;23.30;38.00;;;;;;5085687;28;20043;-56
2021/05/05 10:29:23;;;;;;;1.67;1.05;;;23.30;38.00;;;;;;5084830;28;20032;-55
2021/05/05 10:31:55;;;;;;;2.22;1.17;;;23.40;38.10;;;;;;5083354;28;20059;-54
2021/05/05 10:34:23;;;;;;;1.75;1.10;;;23.40;38.20;;;;;;5081780;28;20335;-56
2021/05/05 10:36:51;;;;;;;2.17;0.90;;;23.40;38.20;;;;;;5083537;28;20111;-56
2021/05/05 10:39:17;;;;;;;2.15;1.20;;;23.30;38.20;;;;;;5083995;28;20020;-59
2021/05/05 10:41:59;;;;;;;1.23;1.00;;;23.30;38.30;;;;;;5082991;28;20092;-57
2021/05/05 10:44:36;;;;;;;1.75;0.98;;;23.30;38.40;;;;;;5075907;28;20028;-56
2021/05/05 10:47:12;;;;;;;1.60;1.10;;;23.30;38.30;;;;;;5083132;28;20031;-57
2021/05/05 10:50:05;;;;;;;1.40;0.90;;;23.30;38.30;;;;;;5084902;28;20020;-53
2021/05/05 10:52:55;;;;;;;2.55;1.00;;;23.40;38.30;;;;;;5062039;28;20067;-57
2021/05/05 10:55:38;;;;;;;1.65;1.05;;;23.40;38.40;;;;;;5069565;28;20089;-54
2021/05/05 10:58:06;;;;;;;1.45;0.90;;;23.40;38.40;;;;;;5084434;28;20111;-58
2021/05/05 11:00:44;;;;;;;1.55;0.95;;;23.40;38.40;;;;;;5080097;28;20047;-57
2021/05/05 11:03:10;;;;;;;2.90;1.30;;;23.40;38.30;;;;;;5076111;28;20028;-57
2021/05/05 11:05:38;;;;;;;2.78;1.05;;;23.40;38.40;;;;;;5081157;28;20038;-61
2021/05/05 11:08:07;;;;;;;2.00;0.90;;;23.40;38.30;;;;;;5077637;28;20050;-55
2021/05/05 11:10:39;;;;;;;2.40;1.00;;;23.40;38.30;;;;;;5083658;28;20378;-58
2021/05/05 11:13:20;;;;;;;1.00;0.80;;;23.40;38.30;;;;;;5081825;28;20382;-55
2021/05/05 11:15:45;;;;;;;1.27;0.90;;;23.40;38.40;;;;;;5078479;28;20107;-55
2021/05/05 11:18:38;;;;;;;1.65;1.10;;;23.40;38.30;;;;;;5082214;28;21284;-52
2021/05/05 11:21:06;;;;;;;2.30;1.08;;;23.40;38.40;;;;;;5075405;28;20033;-57
2021/05/05 11:23:35;;;;;;;3.00;1.00;;;23.40;38.30;;;;;;5081286;28;20553;-57
2021/05/05 11:26:23;;;;;;;2.33;1.17;;;23.40;38.40;;;;;;5079867;28;20028;-55
2021/05/05 11:29:09;;;;;;;1.58;0.90;;;23.40;38.40;;;;;;5081732;28;20028;-57
2021/05/05 11:31:47;;;;;;;2.70;1.10;;;23.40;38.50;;;;;;5080051;28;20032;-49
2021/05/05 11:34:19;;;;;;;1.67;1.05;;;23.40;38.60;;;;;;5075384;28;20012;-57
2021/05/05 11:37:03;;;;;;;1.10;0.85;;;23.40;38.60;;;;;;5076554;28;20067;-53
2021/05/05 11:39:37;;;;;;;1.60;1.00;;;23.50;38.70;;;;;;5082833;28;20055;-56
2021/05/05 11:42:23;;;;;;;1.38;0.95;;;23.40;38.70;;;;;;5079942;28;20165;-56
2021/05/05 11:44:54;;;;;;;1.75;1.00;;;23.40;38.70;;;;;;5076112;28;20069;-54
2021/05/05 11:47:32;;;;;;;1.52;0.90;;;23.40;38.70;;;;;;5081637;28;20085;-55
2021/05/05 11:50:15;;;;;;;1.80;0.90;;;23.40;38.70;;;;;;5078198;28;20364;-51
2021/05/05 11:52:50;;;;;;;1.75;1.02;;;23.40;38.60;;;;;;5076007;28;20024;-54
2021/05/05 11:55:28;;;;;;;1.45;0.98;;;23.40;38.60;;;;;;5079452;28;20256;-54
2021/05/05 11:57:57;;;;;;;1.90;0.88;;;23.50;38.70;;;;;;5077476;28;20103;-57
2021/05/05 12:00:31;;;;;;;1.20;0.90;;;23.50;38.60;;;;;;5084935;28;20534;-54
2021/05/05 12:02:59;;;;;;;1.85;1.08;;;23.50;38.50;;;;;;5084182;28;20062;-56
2021/05/05 12:05:29;;;;;;;1.70;1.05;;;23.50;39.10;;;;;;5087491;28;20550;-56
2021/05/05 12:08:14;;;;;;;1.05;0.80;;;23.40;38.50;;;;;;5087251;28;20045;-60
2021/05/05 12:10:54;;;;;;;1.98;1.00;;;23.50;38.60;;;;;;5083643;28;20047;-57
2021/05/05 12:13:28;;;;;;;1.98;0.90;;;23.50;38.70;;;;;;5086383;28;20036;-57
2021/05/05 12:16:03;;;;;;;1.05;0.80;;;23.40;38.60;;;;;;5087570;28;20030;-54
2021/05/05 12:18:34;;;;;;;2.33;1.08;;;23.40;38.60;;;;;;5091370;28;20038;-55
2021/05/05 12:21:01;;;;;;;2.05;0.85;;;23.40;38.60;;;;;;5084850;28;20169;-57
2021/05/05 12:23:51;;;;;;;1.63;0.90;;;23.40;33.70;;;;;;5093208;28;20458;-65
2021/05/05 12:26:19;;;;;;;1.67;0.80;;;23.30;32.60;;;;;;5082207;28;20099;-63
2021/05/05 12:28:47;;;;;;;1.98;0.95;;;23.20;32.60;;;;;;5087417;28;20020;-63
2021/05/05 12:31:15;;;;;;;2.35;1.05;;;23.10;34.30;;;;;;5066222;28;20044;-62
2021/05/05 12:33:43;;;;;;;1.40;0.80;;;23.10;35.20;;;;;;5078679;28;20491;-66
2021/05/05 12:36:20;;;;;;;1.52;0.85;;;23.10;35.70;;;;;;5086233;28;20085;-65
2021/05/05 12:38:49;;;;;;;1.63;0.90;;;23.00;36.10;;;;;;5086677;28;20032;-64
2021/05/05 12:41:24;;;;;;;1.75;0.70;;;23.00;35.40;;;;;;5087962;28;20452;-65
2021/05/05 12:43:59;;;;;;;1.45;0.80;;;23.00;36.80;;;;;;5086831;28;20374;-66
2021/05/05 12:46:33;;;;;;;1.55;0.85;;;23.00;37.80;;;;;;5086173;28;20042;-54
2021/05/05 12:49:01;;;;;;;2.33;0.90;;;23.10;38.00;;;;;;5085734;28;20379;-58
2021/05/05 12:51:36;;;;;;;1.77;0.90;;;23.10;38.10;;;;;;5086945;28;20034;-57
2021/05/05 12:54:03;;;;;;;1.77;0.85;;;23.10;38.10;;;;;;5086153;28;20036;-59
2021/05/05 12:56:47;;;;;;;1.13;0.85;;;23.10;38.10;;;;;;5085893;28;20463;-57
2021/05/05 12:59:34;;;;;;;1.73;0.80;;;23.20;38.10;;;;;;5065580;28;20056;-53
2021/05/05 13:02:08;;;;;;;2.70;1.00;;;23.10;38.10;;;;;;5087733;28;20044;-58